Poa, Brazil
Current Conditions -  °F | °C
As of 11:00 AM on Sunday 21 Dec 2014 (Local Time) from SBGR Reporting Station
Broken Clouds Broken Clouds  
Wind Chill: 84°   Ceiling: 4000
Heat Index: 88°   Visibility: 6mi
Dew Point: 70°   Wind: 17mph
Humidity: 62%   Direction: 340°NNW
Pressure: 29.97"   Gusts: 29mph
Location:  23.52°S, 46.35°W
Report Text: SBGR 211300Z 34015G25KT 9999 BKN040 29/21 Q1015
Loading
Personal Weather Stations






























Interactive Weather Map New forecast layout! Learn more

10-Day Weather Forecast

Advertisements
Track Severe Weather on mobile